KWHPKJAC

Guest
Details From KWHP - Whiteman
To KJAC - Jackson Hole
Flight Number -
Tags Generated
Created
Modified
Stats Distance 665 nm / 1,232 km
Max Altitude 0 ft / 0 m
Waypoints 4
Social Downloads 1
Likes 0
Share VATSIM

Download

Looking for another format? Having issues loading an existing format? Contact us
Advertisement - Login to hide

Notes

Generated

Route

KWHP BAGGI SCHUS KJAC

ID Type Via Altitude Latitude Longitude Leg Dist Tot Dist Heading (true) Name
O KWHP APT - 0 ft / 0 m 34.26358˚ -118.41803˚ - 0 nm - -
BAGGI FIX - 0 ft / 0 m 40.74286˚ -113.53928˚ 453 nm 453 nm 29° / 32° -
SCHUS FIX - 0 ft / 0 m 43.51239˚ -110.83390˚ 205 nm 658 nm 35° / 37° -
O KJAC APT - 0 ft / 0 m 43.59842˚ -110.74209˚ 6 nm 664 nm 38° / 38° -

Altitude Profile

Advertisement - Login to hide

Weather


0- 5 10 15 20 25 30 35+ Temperature / ° C

Clouds and Precipitation
Forecast for 2018-05-21 18:00 UTC. Updated 6 hours ago

Ground ~20,000 ft ~40,000 ft Winds

KWHP

Details ICAO KWHP (WHP)
Name WHITEMAN
Region United States
Timezone America/Los_Angeles (UTC-7.0)
Stats Elevation 1,003 ft / 306 m (AMSL)
Location 34.259285° -118.413490°
Runways 1
Magnetic Variation 12.031° E

METAR

KWHP 212250Z 11004KT 10SM OVC025 16/10 A2990

Decode

TAF

Not found

Departure Runways

ID Width Length Bearing (true) Bearing (mag) Surface Threshold Offset Overrun Length
12 75 ft / 23 m 4,164 ft / 1,269 m 138.87° 126.84° Asphalt 728 ft / 222 m 49 ft / 15 m
30 75 ft / 23 m 4,164 ft / 1,269 m 318.87° 306.84° Asphalt 479 ft / 146 m 69 ft / 21 m

KJAC

Details ICAO KJAC (JAC)
Name Jackson Hole
Region United States
Timezone America/Denver (UTC-6.0)
Stats Elevation 6,451 ft / 1,966 m (AMSL)
Location 43.607352° -110.737742°
Runways 1
Magnetic Variation 11.348° E

METAR

KJAC 212256Z 13010G18KT 10SM FEW120 17/04 A3000 RMK AO2 LTG DSNT SW AND W SLPNO T01670039

Decode

TAF

TAF KJAC 211722Z 2118/2218 19006KT P6SM SCT060 FM212000 20007KT P6SM VCTS SCT060CB BKN140 TEMPO 2121/2123 6SM -TSRA BKN060CB FM220200 36006KT P6SM VCTS SCT050CB BKN090 FM220800 01005KT P6SM SCT080 AMD LTD TO CLD VIS AND WIND

Decode

Destination Runways

ID Width Length Bearing (true) Bearing (mag) Surface Threshold Offset Overrun Length
01 151 ft / 46 m 6,285 ft / 1,916 m 19.50° 8.15° Asphalt 0 ft / 0 m 308 ft / 94 m
19 151 ft / 46 m 6,285 ft / 1,916 m 199.50° 188.15° Asphalt 0 ft / 0 m 305 ft / 93 m

Approach Navaids

Runway Type Ident Frequency Range Bearing (true) Bearing (mag) Slope Elevation
19 Localiser IJAC 109.10 MHz 18 nm / 33 km 199.36° 188.01° - 6,408 ft / 1,953 m (AMSL)
19 Glidescope IJAC 109.10 MHz 10 nm / 19 km 199.36° 188.01° 3.00° 6,441 ft / 1,963 m (AMSL)
19 DME IJAC 109.10 MHz 18 nm / 33 km - - - 6,415 ft / 1,955 m (AMSL)

Popular Alternatives